Hilo, HI (96720)

8:59 AM HST on July 02, 2015 (GMT -1000)
Hilo International | | Change Station
CLOSE
Current Station
Airport
Location: Hilo,
Elevation: 36 ft
Nearby Weather Stations

Elev 36 ft 19.72 °N, 155.05 °W | Updated 6 minutes ago

Light Rain
Light Rain
77 °F
Feels Like 77 °F
N
6
Wind Variable Wind from SW

Today
High -- | Low -- °F
--% Chance of Precip.
Yesterday
High -- | Low -- °F
Precip. -- in
5:45 AM 7:03 PM
Full, 99% visible
Pressure 29.94 in
Visibility 5.0 miles
Clouds Few 1700 ft
Mostly Cloudy 2400 ft
Overcast 5000 ft
Dew Point 74 °F
Humidity 90%
Rainfall 0.03 in
Snow Depth Not available.
UV 2 out of 12
Pollen Not available.
Air Quality Not available.
Flu Activity Not available.
METAR PHTO 021853Z 22005KT 5SM -RA FEW017 BKN024 OVC050 25/23 A2994 RMK AO2 RAB13 SLP139 P0003 T02500233

More Conditions Fewer Conditions

Pressure 29.94 in
Visibility 5.0 miles
Clouds Few 1700 ft
Mostly Cloudy 2400 ft
Overcast 5000 ft
Dew Point 74 °F
Humidity 90%
Rainfall 0.03 in
Snow Depth Not available.
UV 2 out of 12
Pollen Not available.
Air Quality Not available.
Flu Activity Not available.
METAR PHTO 021853Z 22005KT 5SM -RA FEW017 BKN024 OVC050 25/23 A2994 RMK AO2 RAB13 SLP139 P0003 T02500233

More Conditions Fewer Conditions

10-Day Weather Forecast

×

Almanac

Astronomy

Jul. 02, 2015 Rise Set
Actual Time
Civil Twilight
Nautical Twilight
Astronomical Twilight
Moon
Length of Visible Light
Length of Day
Tomorrow will be .
, % of the Moon is Illuminated

Today's Extremes

State Highs State Lows

Community

WunderPhotos

Upload Photos

1,834,516 photos uploaded!

WunderBlogs® & News

Nearby

Air Quality

  Air Quality AQ Index Pollutant
Not available.

Snow Depth

Station Depth Elevation

Earthquake Activity

City Distance Mag. Time & Date
Minimum magnitude displayed is 2.5.

Coastal Water Temperatures

Place Temperature

Stations

Nearby Weather Stations

Station Location Temp. Windchill Dew Point Humidity Wind Precip. Elev Updated Type